Portada
METAR-TAF:

METAR-TAF

Aeroports :

Kansas City, Missouri, Estats Units d'Amèrica

latitud: 39-17-50N, longitud: 094-43-50W, altitud: 312 m

Observació

L'informe es va fer fa 8 minuts, a les 02:53 UTC
Vent 6 kt del Sud-Oest
Temperatura 23°C
Humitat 83%
Pressió 1011 hPa
Visibilitat: 16.1 km
Cel clar

METAR: KMCI 200253Z 22006KT 10SM CLR 23/20 A2984 RMK AO2 SLP092 T02330200 53009

Hora: 22:01 (03:01 UTC)

Pronòstic

L'informe es va fer fa 3 hores i 41 minuts, a les 23:20 UTC
Pronòstic vàlid del 20 a les 00 UTC al 20 a les 24 UTC
Vent 6 kt del Oest
Visibilitat: 10 km
Escasses núvols a una alçada de 5000 ft
Escasses núvols a una alçada de 15000 ft
Cel ennuvolat a una alçada de 25000 ft
A partir de les 20 a les 1800 UTC
Vent 6 kt del Nord
Visibilitat: 10 km
Núvols disperses a una alçada de 25000 ft

TAF: KMCI 192320Z 2000/2024 27006KT P6SM FEW050 FEW150 BKN250 FM201800 35006KT P6SM SCT250

Observacions i pronòstics meteorològics de més de 4000 aeroports (METAR i TAF).

Les estacions disponibles són els punts grocs i vermells al mapa.

Posi el ratolí al punt desitjat per veure el nom de l'estació.

Feu clic per veure les observacions i els pronòstics meteorològics.

Per canviar el mapa: feu clic els botons verds amb una creu de color negre per apropar; al botó verd amb un guió per allunyar la imatge; o en les fletxes verdes per a mapes adjacents.


METAR-TAF: